createdAt,value
2023-04-02T00:00:10.019Z,49.46
2023-04-02T00:05:32.018Z,49.25
2023-04-02T00:10:38.097Z,49.54
2023-04-02T00:15:44.360Z,49.00
2023-04-02T00:20:51.234Z,49.93
2023-04-02T00:25:54.179Z,49.72
2023-04-02T00:30:59.813Z,51.09
2023-04-02T00:36:08.597Z,51.67
2023-04-02T00:41:17.020Z,52.73
2023-04-02T00:46:24.502Z,52.98
2023-04-02T00:51:36.244Z,53.69
2023-04-02T00:56:52.427Z,53.16
2023-04-02T01:02:18.255Z,52.57
2023-04-02T01:07:33.245Z,52.78
2023-04-02T01:12:47.304Z,52.56
2023-04-02T01:18:18.816Z,52.63
2023-04-02T01:23:25.897Z,52.84
2023-04-02T01:29:10.705Z,52.69
2023-04-02T01:34:17.584Z,52.70
2023-04-02T01:39:47.562Z,53.19
2023-04-02T01:44:51.546Z,52.34
2023-04-02T01:50:01.901Z,52.85
2023-04-02T01:55:08.746Z,52.99
2023-04-02T02:00:16.169Z,53.32
2023-04-02T02:05:25.353Z,53.36
2023-04-02T02:10:37.283Z,53.96
2023-04-02T02:15:41.268Z,54.23
2023-04-02T02:20:44.783Z,54.24
2023-04-02T02:25:48.374Z,53.03
2023-04-02T02:30:58.140Z,53.57
2023-04-02T02:36:37.578Z,52.60
2023-04-02T02:41:55.535Z,52.53
2023-04-02T02:47:03.776Z,53.19
2023-04-02T02:52:09.216Z,52.33
2023-04-02T02:57:33.144Z,52.23
2023-04-02T03:02:39.252Z,52.34
2023-04-02T03:07:44.656Z,52.06
2023-04-02T03:13:15.106Z,52.09
2023-04-02T03:18:38.204Z,51.89
2023-04-02T03:23:47.812Z,51.44
2023-04-02T03:28:58.102Z,51.26
2023-04-02T03:34:11.462Z,51.61
2023-04-02T03:39:44.267Z,51.17
2023-04-02T03:44:53.799Z,50.66
2023-04-02T03:50:04.379Z,51.08
2023-04-02T03:55:26.892Z,51.31
2023-04-02T04:00:42.469Z,50.30
2023-04-02T04:06:03.147Z,51.04
2023-04-02T04:11:11.338Z,49.85
2023-04-02T04:16:30.493Z,50.56
2023-04-02T04:21:40.189Z,50.57
2023-04-02T04:26:58.584Z,49.86
2023-04-02T04:32:18.686Z,50.48
2023-04-02T04:37:29.976Z,49.44
2023-04-02T04:42:38.257Z,49.65
2023-04-02T04:47:51.908Z,49.35
2023-04-02T04:52:55.297Z,49.86
2023-04-02T04:58:09.435Z,49.36
2023-04-02T05:03:54.391Z,49.78
2023-04-02T05:09:00.548Z,49.28
2023-04-02T05:14:17.232Z,48.76
2023-04-02T05:19:32.249Z,48.51
2023-04-02T05:24:38.128Z,48.23
2023-04-02T05:29:46.867Z,48.29
2023-04-02T05:34:56.385Z,49.72
2023-04-02T05:40:14.568Z,51.19
2023-04-02T05:45:41.513Z,51.73
2023-04-02T05:50:51.432Z,51.98
2023-04-02T05:56:11.315Z,52.58
2023-04-02T06:01:21.440Z,52.96
2023-04-02T06:06:29.879Z,53.38
2023-04-02T06:11:42.548Z,54.25
2023-04-02T06:16:49.091Z,52.60
2023-04-02T06:22:01.341Z,52.92
2023-04-02T06:27:07.408Z,53.23
2023-04-02T06:32:12.201Z,52.14
2023-04-02T06:37:40.330Z,51.10
2023-04-02T06:42:58.327Z,52.26
2023-04-02T06:48:32.093Z,51.69
2023-04-02T06:53:44.996Z,50.95
2023-04-02T06:58:50.551Z,50.62
2023-04-02T07:03:54.728Z,49.02
2023-04-02T07:09:12.099Z,49.50
2023-04-02T07:14:17.911Z,47.41
2023-04-02T07:19:23.277Z,45.64
2023-04-02T07:24:30.583Z,45.37
2023-04-02T07:29:34.091Z,43.07
2023-04-02T07:34:39.224Z,42.39
2023-04-02T07:39:41.955Z,41.36
2023-04-02T07:44:44.777Z,41.40
2023-04-02T07:49:47.662Z,40.57
2023-04-02T07:54:50.566Z,39.21
2023-04-02T07:59:56.846Z,39.06
2023-04-02T08:04:59.311Z,37.54
2023-04-02T08:10:02.210Z,38.37
2023-04-02T08:15:07.640Z,38.33
2023-04-02T08:20:18.385Z,38.62
2023-04-02T08:25:21.260Z,37.75
2023-04-02T08:30:24.194Z,37.65
2023-04-02T08:35:26.715Z,36.97
2023-04-02T08:40:39.568Z,37.07
2023-04-02T08:46:22.310Z,35.79
2023-04-02T08:51:28.457Z,36.22
2023-04-02T08:56:40.531Z,36.19
2023-04-02T09:01:53.527Z,35.87
2023-04-02T09:06:57.693Z,36.29
2023-04-02T09:12:04.667Z,36.12
2023-04-02T09:17:25.594Z,35.63
2023-04-02T09:22:34.358Z,35.66
2023-04-02T09:27:37.178Z,36.04
2023-04-02T09:32:54.411Z,36.27
2023-04-02T09:38:23.365Z,36.61
2023-04-02T09:43:33.275Z,36.77
2023-04-02T09:48:45.293Z,36.53
2023-04-02T09:53:51.380Z,35.29
2023-04-02T09:59:13.612Z,35.33
2023-04-02T10:04:37.075Z,34.77
2023-04-02T10:09:39.456Z,35.05
2023-04-02T10:14:47.196Z,35.22
2023-04-02T10:19:55.327Z,35.15
2023-04-02T10:25:00.366Z,35.66
2023-04-02T10:30:33.661Z,35.38
2023-04-02T10:36:02.500Z,35.34
2023-04-02T10:41:50.720Z,35.55
2023-04-02T10:47:22.670Z,35.06
2023-04-02T10:52:39.296Z,36.00
2023-04-02T10:57:44.345Z,35.93
2023-04-02T11:02:56.403Z,35.04
2023-04-02T11:08:11.488Z,35.79
2023-04-02T11:13:23.108Z,35.32
2023-04-02T11:18:36.334Z,36.31
2023-04-02T11:23:58.746Z,36.41
2023-04-02T11:29:08.871Z,36.74
2023-04-02T11:34:36.308Z,37.12
2023-04-02T11:39:54.331Z,36.61
2023-04-02T11:45:01.022Z,36.82
2023-04-02T11:50:06.603Z,37.43
2023-04-02T11:55:25.628Z,36.70
2023-04-02T12:00:44.357Z,37.43
2023-04-02T12:05:59.806Z,37.52
2023-04-02T12:11:04.150Z,37.28
2023-04-02T12:16:12.914Z,37.27
2023-04-02T12:21:17.448Z,37.47
2023-04-02T12:26:43.142Z,37.10
2023-04-02T12:31:56.821Z,37.36
2023-04-02T12:37:04.188Z,37.70
2023-04-02T12:42:29.141Z,37.79
2023-04-02T12:47:32.153Z,37.79
2023-04-02T12:52:34.891Z,37.98
2023-04-02T12:57:39.881Z,38.54
2023-04-02T13:02:50.894Z,38.39
2023-04-02T13:07:53.400Z,38.68
2023-04-02T13:13:01.314Z,38.89
2023-04-02T13:18:12.991Z,38.75
2023-04-02T13:23:28.040Z,38.98
2023-04-02T13:28:31.033Z,39.00
2023-04-02T13:33:33.490Z,40.05
2023-04-02T13:38:35.900Z,39.78
2023-04-02T13:43:38.458Z,40.43
2023-04-02T13:48:40.913Z,41.11
2023-04-02T13:53:43.900Z,40.59
2023-04-02T13:58:46.967Z,40.73
2023-04-02T14:03:51.557Z,40.93
2023-04-02T14:09:11.334Z,41.43
2023-04-02T14:14:45.360Z,41.36
2023-04-02T14:20:04.200Z,41.21
2023-04-02T14:25:12.437Z,41.36
2023-04-02T14:30:39.195Z,41.92
2023-04-02T14:35:47.436Z,42.04
2023-04-02T14:40:59.793Z,42.78
2023-04-02T14:46:04.365Z,42.96
2023-04-02T14:51:31.373Z,43.14
2023-04-02T14:56:42.553Z,43.49
2023-04-02T15:01:49.975Z,43.04
2023-04-02T15:06:56.964Z,43.70
2023-04-02T15:12:07.844Z,43.63
2023-04-02T15:17:12.223Z,43.36
2023-04-02T15:22:28.857Z,43.78
2023-04-02T15:27:52.303Z,43.80
2023-04-02T15:32:59.088Z,44.52
2023-04-02T15:38:07.288Z,44.63
2023-04-02T15:43:28.057Z,44.77
2023-04-02T15:48:33.532Z,45.09
2023-04-02T15:53:56.033Z,45.17
2023-04-02T15:59:25.833Z,45.59
2023-04-02T16:04:50.062Z,46.09
2023-04-02T16:10:04.963Z,46.29
2023-04-02T16:15:30.887Z,45.81
2023-04-02T16:20:39.772Z,46.26
2023-04-02T16:25:48.908Z,46.89
2023-04-02T16:31:14.025Z,47.38
2023-04-02T16:36:22.251Z,46.79
2023-04-02T16:41:33.823Z,47.33
2023-04-02T16:46:44.506Z,47.81
2023-04-02T16:52:37.615Z,47.77
2023-04-02T16:58:01.825Z,47.67
2023-04-02T17:03:23.319Z,48.33
2023-04-02T17:08:31.216Z,48.45
2023-04-02T17:14:08.276Z,49.00
2023-04-02T17:19:13.616Z,49.35
2023-04-02T17:24:26.350Z,49.41
2023-04-02T17:29:38.913Z,49.67
2023-04-02T17:34:41.947Z,49.34
2023-04-02T17:40:13.835Z,50.53
2023-04-02T17:45:25.663Z,51.13
2023-04-02T17:50:43.672Z,51.20
2023-04-02T17:55:58.100Z,50.77
2023-04-02T18:01:18.528Z,51.19
2023-04-02T18:06:38.326Z,51.56
2023-04-02T18:11:46.453Z,50.81
2023-04-02T18:17:18.103Z,50.94
2023-04-02T18:22:31.457Z,51.56
2023-04-02T18:28:05.307Z,51.89
2023-04-02T18:33:26.504Z,50.88
2023-04-02T18:38:31.913Z,51.71
2023-04-02T18:43:40.695Z,52.28
2023-04-02T18:49:12.864Z,51.91
2023-04-02T18:54:20.909Z,52.50
2023-04-02T18:59:45.115Z,52.06
2023-04-02T19:04:58.474Z,52.38
2023-04-02T19:10:09.869Z,52.65
2023-04-02T19:15:20.550Z,52.87
2023-04-02T19:20:51.152Z,53.25
2023-04-02T19:26:17.670Z,53.11
2023-04-02T19:31:47.947Z,53.25
2023-04-02T19:37:22.242Z,53.22
2023-04-02T19:42:46.368Z,53.20
2023-04-02T19:47:48.960Z,53.14
2023-04-02T19:52:51.435Z,53.10
2023-04-02T19:58:00.983Z,53.12
2023-04-02T20:03:11.345Z,53.93
2023-04-02T20:08:14.477Z,53.08
2023-04-02T20:13:16.768Z,53.36
2023-04-02T20:18:20.776Z,54.33
2023-04-02T20:23:24.124Z,53.52
2023-04-02T20:28:29.434Z,53.33
2023-04-02T20:33:32.824Z,53.97
2023-04-02T20:38:36.226Z,54.38
2023-04-02T20:43:40.826Z,55.01
2023-04-02T20:48:44.135Z,55.46
2023-04-02T20:53:46.826Z,54.60
2023-04-02T20:58:50.957Z,55.98
2023-04-02T21:04:02.573Z,56.70
2023-04-02T21:09:08.723Z,55.97
2023-04-02T21:14:11.941Z,56.14
2023-04-02T21:19:15.393Z,56.74
2023-04-02T21:24:18.223Z,56.83
2023-04-02T21:29:21.299Z,56.71
2023-04-02T21:34:23.737Z,56.82
2023-04-02T21:39:26.514Z,56.83
2023-04-02T21:44:29.459Z,57.13
2023-04-02T21:49:32.165Z,58.06
2023-04-02T21:54:34.571Z,57.02
2023-04-02T21:59:38.019Z,58.08
2023-04-02T22:04:41.484Z,57.31
2023-04-02T22:09:44.018Z,58.55
2023-04-02T22:14:46.800Z,58.51
2023-04-02T22:19:49.282Z,58.40
2023-04-02T22:24:51.526Z,58.24
2023-04-02T22:29:54.551Z,58.80
2023-04-02T22:34:56.893Z,57.86
2023-04-02T22:39:59.295Z,58.25
2023-04-02T22:45:04.496Z,57.53
2023-04-02T22:50:07.715Z,58.04
2023-04-02T22:55:12.327Z,58.44
2023-04-02T23:00:17.929Z,58.95
2023-04-02T23:05:21.068Z,59.39
2023-04-02T23:10:23.804Z,58.97
2023-04-02T23:15:31.310Z,58.61
2023-04-02T23:20:34.024Z,59.11
2023-04-02T23:25:38.423Z,58.77
2023-04-02T23:30:44.642Z,58.86
2023-04-02T23:35:46.993Z,58.46
2023-04-02T23:40:49.628Z,59.07
2023-04-02T23:45:52.020Z,59.01
2023-04-02T23:50:54.374Z,58.88
2023-04-02T23:55:56.798Z,58.81
